sensor_id;sensor_type;location;lat;lon;timestamp;temperature;humidity
52739;DHT22;52466;40.122;18.318;2022-09-21T00:02:06;17.90;68.10
52739;DHT22;52466;40.122;18.318;2022-09-21T00:05:13;18.00;68.00
52739;DHT22;52466;40.122;18.318;2022-09-21T00:08:21;18.10;67.70
52739;DHT22;52466;40.122;18.318;2022-09-21T00:11:30;18.10;67.90
52739;DHT22;52466;40.122;18.318;2022-09-21T00:14:38;18.10;67.70
52739;DHT22;52466;40.122;18.318;2022-09-21T00:17:46;18.10;67.50
52739;DHT22;52466;40.122;18.318;2022-09-21T00:20:55;18.10;67.80
52739;DHT22;52466;40.122;18.318;2022-09-21T00:24:04;18.20;67.70
52739;DHT22;52466;40.122;18.318;2022-09-21T00:27:11;18.10;67.60
52739;DHT22;52466;40.122;18.318;2022-09-21T00:30:19;18.00;68.40
52739;DHT22;52466;40.122;18.318;2022-09-21T00:33:27;17.90;68.20
52739;DHT22;52466;40.122;18.318;2022-09-21T00:36:35;17.80;68.50
52739;DHT22;52466;40.122;18.318;2022-09-21T00:39:42;17.90;67.90
52739;DHT22;52466;40.122;18.318;2022-09-21T00:42:50;17.90;67.50
52739;DHT22;52466;40.122;18.318;2022-09-21T00:46:07;18.10;66.90
52739;DHT22;52466;40.122;18.318;2022-09-21T00:49:21;18.10;66.80
52739;DHT22;52466;40.122;18.318;2022-09-21T00:52:33;18.10;67.00
52739;DHT22;52466;40.122;18.318;2022-09-21T00:55:47;18.10;66.70
52739;DHT22;52466;40.122;18.318;2022-09-21T00:58:56;18.10;66.40
52739;DHT22;52466;40.122;18.318;2022-09-21T01:02:04;18.20;66.00
52739;DHT22;52466;40.122;18.318;2022-09-21T01:05:32;18.40;65.50
52739;DHT22;52466;40.122;18.318;2022-09-21T01:08:40;18.50;65.00
52739;DHT22;52466;40.122;18.318;2022-09-21T01:22:02;18.40;65.70
52739;DHT22;52466;40.122;18.318;2022-09-21T01:36:15;18.30;66.60
52739;DHT22;52466;40.122;18.318;2022-09-21T01:39:25;18.30;66.40
52739;DHT22;52466;40.122;18.318;2022-09-21T01:42:34;18.40;66.10
52739;DHT22;52466;40.122;18.318;2022-09-21T01:45:48;18.20;66.10
52739;DHT22;52466;40.122;18.318;2022-09-21T01:49:04;18.30;65.80
52739;DHT22;52466;40.122;18.318;2022-09-21T01:52:26;18.30;65.80
52739;DHT22;52466;40.122;18.318;2022-09-21T01:55:42;18.20;65.90
52739;DHT22;52466;40.122;18.318;2022-09-21T02:02:40;18.30;65.50
52739;DHT22;52466;40.122;18.318;2022-09-21T02:05:50;18.10;65.40
52739;DHT22;52466;40.122;18.318;2022-09-21T02:08:58;18.20;65.10
52739;DHT22;52466;40.122;18.318;2022-09-21T02:12:06;18.30;64.50
52739;DHT22;52466;40.122;18.318;2022-09-21T02:15:13;18.30;63.50
52739;DHT22;52466;40.122;18.318;2022-09-21T02:18:47;18.50;63.20
52739;DHT22;52466;40.122;18.318;2022-09-21T02:22:04;18.50;62.70
52739;DHT22;52466;40.122;18.318;2022-09-21T02:25:35;18.50;62.70
52739;DHT22;52466;40.122;18.318;2022-09-21T02:28:59;18.30;63.40
52739;DHT22;52466;40.122;18.318;2022-09-21T02:35:44;18.50;62.90
52739;DHT22;52466;40.122;18.318;2022-09-21T02:39:11;18.40;63.90
52739;DHT22;52466;40.122;18.318;2022-09-21T02:42:26;18.40;65.70
52739;DHT22;52466;40.122;18.318;2022-09-21T02:45:42;18.30;66.60
52739;DHT22;52466;40.122;18.318;2022-09-21T02:48:55;18.40;67.30
52739;DHT22;52466;40.122;18.318;2022-09-21T02:52:14;18.40;66.60
52739;DHT22;52466;40.122;18.318;2022-09-21T02:55:23;18.40;67.20
52739;DHT22;52466;40.122;18.318;2022-09-21T02:58:36;18.20;67.20
52739;DHT22;52466;40.122;18.318;2022-09-21T03:01:45;18.20;67.10
52739;DHT22;52466;40.122;18.318;2022-09-21T03:04:53;18.10;66.50
52739;DHT22;52466;40.122;18.318;2022-09-21T03:08:01;18.30;66.30
52739;DHT22;52466;40.122;18.318;2022-09-21T03:11:08;18.40;66.40
52739;DHT22;52466;40.122;18.318;2022-09-21T03:14:17;18.50;66.30
52739;DHT22;52466;40.122;18.318;2022-09-21T03:17:26;18.50;65.40
52739;DHT22;52466;40.122;18.318;2022-09-21T03:20:35;18.50;65.00
52739;DHT22;52466;40.122;18.318;2022-09-21T03:23:43;18.50;65.40
52739;DHT22;52466;40.122;18.318;2022-09-21T03:26:50;18.60;65.10
52739;DHT22;52466;40.122;18.318;2022-09-21T03:29:58;18.50;64.90
52739;DHT22;52466;40.122;18.318;2022-09-21T03:33:06;18.40;65.20
52739;DHT22;52466;40.122;18.318;2022-09-21T03:36:14;18.50;64.80
52739;DHT22;52466;40.122;18.318;2022-09-21T03:39:22;18.50;64.60
52739;DHT22;52466;40.122;18.318;2022-09-21T03:42:29;18.60;65.00
52739;DHT22;52466;40.122;18.318;2022-09-21T03:45:37;18.60;64.50
52739;DHT22;52466;40.122;18.318;2022-09-21T03:48:48;18.50;64.60
52739;DHT22;52466;40.122;18.318;2022-09-21T03:51:56;18.60;64.10
52739;DHT22;52466;40.122;18.318;2022-09-21T03:55:06;18.50;64.30
52739;DHT22;52466;40.122;18.318;2022-09-21T03:58:14;18.60;64.30
52739;DHT22;52466;40.122;18.318;2022-09-21T04:01:22;18.60;64.00
52739;DHT22;52466;40.122;18.318;2022-09-21T04:04:30;18.60;63.70
52739;DHT22;52466;40.122;18.318;2022-09-21T04:07:37;18.60;63.90
52739;DHT22;52466;40.122;18.318;2022-09-21T04:10:46;18.60;63.70
52739;DHT22;52466;40.122;18.318;2022-09-21T04:13:53;18.60;63.70
52739;DHT22;52466;40.122;18.318;2022-09-21T04:17:04;18.50;63.90
52739;DHT22;52466;40.122;18.318;2022-09-21T04:20:11;18.50;64.20
52739;DHT22;52466;40.122;18.318;2022-09-21T04:23:19;18.50;64.80
52739;DHT22;52466;40.122;18.318;2022-09-21T04:26:30;18.50;66.00
52739;DHT22;52466;40.122;18.318;2022-09-21T04:29:39;18.50;66.10
52739;DHT22;52466;40.122;18.318;2022-09-21T04:32:46;18.30;65.50
52739;DHT22;52466;40.122;18.318;2022-09-21T04:35:54;18.40;65.30
52739;DHT22;52466;40.122;18.318;2022-09-21T04:39:03;18.40;64.70
52739;DHT22;52466;40.122;18.318;2022-09-21T04:42:12;18.40;64.40
52739;DHT22;52466;40.122;18.318;2022-09-21T04:45:20;18.30;64.70
52739;DHT22;52466;40.122;18.318;2022-09-21T04:48:28;18.30;64.50
52739;DHT22;52466;40.122;18.318;2022-09-21T04:51:37;18.40;64.10
52739;DHT22;52466;40.122;18.318;2022-09-21T04:54:46;18.30;63.90
52739;DHT22;52466;40.122;18.318;2022-09-21T04:57:53;18.40;63.70
52739;DHT22;52466;40.122;18.318;2022-09-21T05:01:01;18.40;64.40
52739;DHT22;52466;40.122;18.318;2022-09-21T05:04:29;18.40;64.60
52739;DHT22;52466;40.122;18.318;2022-09-21T05:07:37;18.50;64.60
52739;DHT22;52466;40.122;18.318;2022-09-21T05:10:45;18.30;64.10
52739;DHT22;52466;40.122;18.318;2022-09-21T05:13:52;18.40;63.90
52739;DHT22;52466;40.122;18.318;2022-09-21T05:17:00;18.40;63.40
52739;DHT22;52466;40.122;18.318;2022-09-21T05:20:09;18.40;62.00
52739;DHT22;52466;40.122;18.318;2022-09-21T05:23:17;18.60;60.90
52739;DHT22;52466;40.122;18.318;2022-09-21T05:26:24;18.60;60.20
52739;DHT22;52466;40.122;18.318;2022-09-21T05:29:32;18.80;59.70
52739;DHT22;52466;40.122;18.318;2022-09-21T05:32:48;18.80;59.20
52739;DHT22;52466;40.122;18.318;2022-09-21T05:39:44;18.80;58.70
52739;DHT22;52466;40.122;18.318;2022-09-21T05:42:52;18.90;58.70
52739;DHT22;52466;40.122;18.318;2022-09-21T06:03:28;19.00;61.20
52739;DHT22;52466;40.122;18.318;2022-09-21T06:06:36;18.90;61.60
52739;DHT22;52466;40.122;18.318;2022-09-21T06:09:44;18.80;61.60
52739;DHT22;52466;40.122;18.318;2022-09-21T06:12:52;18.90;61.40
52739;DHT22;52466;40.122;18.318;2022-09-21T06:16:03;18.80;60.90
52739;DHT22;52466;40.122;18.318;2022-09-21T06:19:11;18.90;61.00
52739;DHT22;52466;40.122;18.318;2022-09-21T06:22:19;18.80;60.80
52739;DHT22;52466;40.122;18.318;2022-09-21T06:25:27;19.00;60.50
52739;DHT22;52466;40.122;18.318;2022-09-21T06:28:34;19.00;60.50
52739;DHT22;52466;40.122;18.318;2022-09-21T06:31:42;19.00;60.20
52739;DHT22;52466;40.122;18.318;2022-09-21T06:34:50;19.10;60.30
52739;DHT22;52466;40.122;18.318;2022-09-21T06:38:02;19.00;60.20
52739;DHT22;52466;40.122;18.318;2022-09-21T06:41:10;19.10;59.80
52739;DHT22;52466;40.122;18.318;2022-09-21T06:44:18;19.30;59.30
52739;DHT22;52466;40.122;18.318;2022-09-21T06:47:26;19.50;58.00
52739;DHT22;52466;40.122;18.318;2022-09-21T06:50:33;19.80;58.00
52739;DHT22;52466;40.122;18.318;2022-09-21T06:53:41;19.70;57.30
52739;DHT22;52466;40.122;18.318;2022-09-21T06:56:49;19.80;57.80
52739;DHT22;52466;40.122;18.318;2022-09-21T06:59:57;19.90;56.90
52739;DHT22;52466;40.122;18.318;2022-09-21T07:03:05;20.10;56.40
52739;DHT22;52466;40.122;18.318;2022-09-21T07:06:12;20.00;57.00
52739;DHT22;52466;40.122;18.318;2022-09-21T07:09:21;19.90;57.30
52739;DHT22;52466;40.122;18.318;2022-09-21T07:12:30;20.00;56.90
52739;DHT22;52466;40.122;18.318;2022-09-21T07:15:40;20.70;55.60
52739;DHT22;52466;40.122;18.318;2022-09-21T07:18:48;21.10;54.70
52739;DHT22;52466;40.122;18.318;2022-09-21T07:21:56;21.10;53.40
52739;DHT22;52466;40.122;18.318;2022-09-21T07:25:04;21.00;53.60
52739;DHT22;52466;40.122;18.318;2022-09-21T07:28:12;20.90;52.50
52739;DHT22;52466;40.122;18.318;2022-09-21T07:31:34;21.50;51.40
52739;DHT22;52466;40.122;18.318;2022-09-21T07:34:42;21.60;51.40
52739;DHT22;52466;40.122;18.318;2022-09-21T07:37:49;21.70;51.20
52739;DHT22;52466;40.122;18.318;2022-09-21T07:41:00;22.00;50.60
52739;DHT22;52466;40.122;18.318;2022-09-21T07:44:09;22.50;49.30
52739;DHT22;52466;40.122;18.318;2022-09-21T07:47:17;24.50;44.20
52739;DHT22;52466;40.122;18.318;2022-09-21T07:50:24;23.60;45.60
52739;DHT22;52466;40.122;18.318;2022-09-21T07:53:33;23.30;45.90
52739;DHT22;52466;40.122;18.318;2022-09-21T07:56:56;22.90;47.20
52739;DHT22;52466;40.122;18.318;2022-09-21T08:00:22;22.70;47.40
52739;DHT22;52466;40.122;18.318;2022-09-21T08:03:30;22.80;47.20
52739;DHT22;52466;40.122;18.318;2022-09-21T08:06:37;22.20;48.30
52739;DHT22;52466;40.122;18.318;2022-09-21T08:09:46;22.10;47.50
52739;DHT22;52466;40.122;18.318;2022-09-21T08:12:56;22.10;47.10
52739;DHT22;52466;40.122;18.318;2022-09-21T08:16:04;22.30;47.00
52739;DHT22;52466;40.122;18.318;2022-09-21T08:19:14;22.90;46.30
52739;DHT22;52466;40.122;18.318;2022-09-21T08:22:23;23.10;44.90
52739;DHT22;52466;40.122;18.318;2022-09-21T08:25:32;23.10;43.00
52739;DHT22;52466;40.122;18.318;2022-09-21T08:28:40;23.80;42.00
52739;DHT22;52466;40.122;18.318;2022-09-21T08:32:06;24.50;37.20
52739;DHT22;52466;40.122;18.318;2022-09-21T08:35:14;24.50;34.80
52739;DHT22;52466;40.122;18.318;2022-09-21T08:38:21;24.80;35.80
52739;DHT22;52466;40.122;18.318;2022-09-21T08:45:03;24.80;33.90
52739;DHT22;52466;40.122;18.318;2022-09-21T08:48:19;24.60;32.70
52739;DHT22;52466;40.122;18.318;2022-09-21T08:51:33;24.80;32.30
52739;DHT22;52466;40.122;18.318;2022-09-21T08:57:51;24.40;33.90
52739;DHT22;52466;40.122;18.318;2022-09-21T09:04:47;24.20;35.20
52739;DHT22;52466;40.122;18.318;2022-09-21T09:21:55;23.50;36.90
52739;DHT22;52466;40.122;18.318;2022-09-21T09:25:06;24.10;36.10
52739;DHT22;52466;40.122;18.318;2022-09-21T09:28:29;24.50;36.20
52739;DHT22;52466;40.122;18.318;2022-09-21T09:31:39;24.90;36.80
52739;DHT22;52466;40.122;18.318;2022-09-21T09:35:04;24.10;34.00
52739;DHT22;52466;40.122;18.318;2022-09-21T09:51:30;23.90;34.40
52739;DHT22;52466;40.122;18.318;2022-09-21T09:54:39;24.20;36.10
52739;DHT22;52466;40.122;18.318;2022-09-21T09:57:47;24.20;35.50
52739;DHT22;52466;40.122;18.318;2022-09-21T10:00:55;24.30;36.30
52739;DHT22;52466;40.122;18.318;2022-09-21T10:04:05;24.20;35.00
52739;DHT22;52466;40.122;18.318;2022-09-21T10:07:19;23.70;37.70
52739;DHT22;52466;40.122;18.318;2022-09-21T10:10:42;23.70;37.60
52739;DHT22;52466;40.122;18.318;2022-09-21T10:13:51;24.10;37.70
52739;DHT22;52466;40.122;18.318;2022-09-21T10:17:05;24.50;37.60
52739;DHT22;52466;40.122;18.318;2022-09-21T10:20:17;24.50;36.60
52739;DHT22;52466;40.122;18.318;2022-09-21T10:23:28;24.90;36.10
52739;DHT22;52466;40.122;18.318;2022-09-21T10:26:47;24.20;37.70
52739;DHT22;52466;40.122;18.318;2022-09-21T10:29:56;24.10;36.20
52739;DHT22;52466;40.122;18.318;2022-09-21T10:33:18;24.30;37.10
52739;DHT22;52466;40.122;18.318;2022-09-21T10:36:33;24.40;37.10
52739;DHT22;52466;40.122;18.318;2022-09-21T10:39:47;23.90;38.00
52739;DHT22;52466;40.122;18.318;2022-09-21T10:42:56;24.20;36.30
52739;DHT22;52466;40.122;18.318;2022-09-21T10:46:04;24.20;35.90
52739;DHT22;52466;40.122;18.318;2022-09-21T10:49:24;24.00;34.30
52739;DHT22;52466;40.122;18.318;2022-09-21T10:52:37;23.80;33.70
52739;DHT22;52466;40.122;18.318;2022-09-21T10:59:17;23.70;37.20
52739;DHT22;52466;40.122;18.318;2022-09-21T11:05:42;23.20;38.60
52739;DHT22;52466;40.122;18.318;2022-09-21T11:09:26;23.60;37.90
52739;DHT22;52466;40.122;18.318;2022-09-21T11:13:46;24.10;38.10
52739;DHT22;52466;40.122;18.318;2022-09-21T11:20:21;24.30;38.70
52739;DHT22;52466;40.122;18.318;2022-09-21T11:26:51;24.00;38.50
52739;DHT22;52466;40.122;18.318;2022-09-21T11:57:34;23.50;40.70
52739;DHT22;52466;40.122;18.318;2022-09-21T12:08:16;23.90;38.40
52739;DHT22;52466;40.122;18.318;2022-09-21T12:21:29;23.20;40.90
52739;DHT22;52466;40.122;18.318;2022-09-21T12:24:47;22.90;41.30
52739;DHT22;52466;40.122;18.318;2022-09-21T12:28:01;23.30;40.00
52739;DHT22;52466;40.122;18.318;2022-09-21T12:31:18;23.30;39.30
52739;DHT22;52466;40.122;18.318;2022-09-21T12:34:42;23.40;39.10
52739;DHT22;52466;40.122;18.318;2022-09-21T12:44:59;23.10;37.90
52739;DHT22;52466;40.122;18.318;2022-09-21T12:48:34;22.90;38.50
52739;DHT22;52466;40.122;18.318;2022-09-21T12:51:54;23.00;34.40
52739;DHT22;52466;40.122;18.318;2022-09-21T13:02:32;23.30;34.40
52739;DHT22;52466;40.122;18.318;2022-09-21T13:09:11;23.00;36.10
52739;DHT22;52466;40.122;18.318;2022-09-21T13:12:22;22.60;38.50
52739;DHT22;52466;40.122;18.318;2022-09-21T13:15:38;22.60;36.90
52739;DHT22;52466;40.122;18.318;2022-09-21T13:19:00;22.60;38.40
52739;DHT22;52466;40.122;18.318;2022-09-21T13:22:20;23.00;38.60
52739;DHT22;52466;40.122;18.318;2022-09-21T13:25:30;22.90;40.40
52739;DHT22;52466;40.122;18.318;2022-09-21T13:32:50;22.80;40.70
52739;DHT22;52466;40.122;18.318;2022-09-21T13:48:51;22.40;41.40
52739;DHT22;52466;40.122;18.318;2022-09-21T13:58:39;22.30;42.70
52739;DHT22;52466;40.122;18.318;2022-09-21T14:01:48;22.50;42.90
52739;DHT22;52466;40.122;18.318;2022-09-21T14:05:06;22.30;42.90
52739;DHT22;52466;40.122;18.318;2022-09-21T14:11:37;22.40;44.10
52739;DHT22;52466;40.122;18.318;2022-09-21T14:18:36;22.50;44.60
52739;DHT22;52466;40.122;18.318;2022-09-21T14:25:23;22.00;43.60
52739;DHT22;52466;40.122;18.318;2022-09-21T14:28:36;21.70;45.40
52739;DHT22;52466;40.122;18.318;2022-09-21T14:31:47;21.80;44.70
52739;DHT22;52466;40.122;18.318;2022-09-21T14:35:22;21.80;44.70
52739;DHT22;52466;40.122;18.318;2022-09-21T14:38:54;21.80;42.30
52739;DHT22;52466;40.122;18.318;2022-09-21T14:42:22;21.70;43.50
52739;DHT22;52466;40.122;18.318;2022-09-21T14:56:03;21.60;44.50
52739;DHT22;52466;40.122;18.318;2022-09-21T15:02:36;21.60;45.30
52739;DHT22;52466;40.122;18.318;2022-09-21T15:05:48;21.60;44.60
52739;DHT22;52466;40.122;18.318;2022-09-21T15:19:35;21.60;42.10
52739;DHT22;52466;40.122;18.318;2022-09-21T15:22:43;21.30;41.20
52739;DHT22;52466;40.122;18.318;2022-09-21T15:26:00;21.20;40.50
52739;DHT22;52466;40.122;18.318;2022-09-21T15:29:25;21.10;40.30
52739;DHT22;52466;40.122;18.318;2022-09-21T15:32:42;21.40;39.90
52739;DHT22;52466;40.122;18.318;2022-09-21T15:35:51;21.30;37.20
52739;DHT22;52466;40.122;18.318;2022-09-21T15:39:00;21.10;35.50
52739;DHT22;52466;40.122;18.318;2022-09-21T15:45:17;20.90;33.90
52739;DHT22;52466;40.122;18.318;2022-09-21T15:48:29;20.90;34.00
52739;DHT22;52466;40.122;18.318;2022-09-21T15:51:42;20.90;35.70
52739;DHT22;52466;40.122;18.318;2022-09-21T15:54:58;20.80;36.20
52739;DHT22;52466;40.122;18.318;2022-09-21T15:58:20;20.60;36.00
52739;DHT22;52466;40.122;18.318;2022-09-21T16:01:28;20.60;36.20
52739;DHT22;52466;40.122;18.318;2022-09-21T16:04:45;20.60;36.50
52739;DHT22;52466;40.122;18.318;2022-09-21T16:08:35;20.50;37.20
52739;DHT22;52466;40.122;18.318;2022-09-21T16:11:43;20.20;37.00
52739;DHT22;52466;40.122;18.318;2022-09-21T16:14:51;20.20;36.90
52739;DHT22;52466;40.122;18.318;2022-09-21T16:18:04;20.10;39.40
52739;DHT22;52466;40.122;18.318;2022-09-21T16:21:19;20.10;39.40
52739;DHT22;52466;40.122;18.318;2022-09-21T16:24:27;19.90;39.50
52739;DHT22;52466;40.122;18.318;2022-09-21T16:27:36;19.80;40.90
52739;DHT22;52466;40.122;18.318;2022-09-21T16:30:52;19.70;41.30
52739;DHT22;52466;40.122;18.318;2022-09-21T16:34:19;19.60;41.40
52739;DHT22;52466;40.122;18.318;2022-09-21T16:37:28;19.70;41.60
52739;DHT22;52466;40.122;18.318;2022-09-21T16:40:36;19.50;42.30
52739;DHT22;52466;40.122;18.318;2022-09-21T16:43:43;19.30;42.20
52739;DHT22;52466;40.122;18.318;2022-09-21T16:46:59;19.30;42.20
52739;DHT22;52466;40.122;18.318;2022-09-21T16:50:11;19.30;42.60
52739;DHT22;52466;40.122;18.318;2022-09-21T16:53:19;19.30;42.60
52739;DHT22;52466;40.122;18.318;2022-09-21T16:56:28;19.20;43.20
52739;DHT22;52466;40.122;18.318;2022-09-21T16:59:36;19.20;42.90
52739;DHT22;52466;40.122;18.318;2022-09-21T17:02:43;19.20;43.30
52739;DHT22;52466;40.122;18.318;2022-09-21T17:05:52;19.10;43.30
52739;DHT22;52466;40.122;18.318;2022-09-21T17:08:59;19.00;43.20
52739;DHT22;52466;40.122;18.318;2022-09-21T17:12:12;19.10;42.70
52739;DHT22;52466;40.122;18.318;2022-09-21T17:15:21;18.90;43.20
52739;DHT22;52466;40.122;18.318;2022-09-21T17:18:29;18.90;43.20
52739;DHT22;52466;40.122;18.318;2022-09-21T17:21:36;18.80;43.10
52739;DHT22;52466;40.122;18.318;2022-09-21T17:24:45;18.80;43.30
52739;DHT22;52466;40.122;18.318;2022-09-21T17:27:55;18.80;43.50
52739;DHT22;52466;40.122;18.318;2022-09-21T17:31:09;18.80;43.30
52739;DHT22;52466;40.122;18.318;2022-09-21T17:34:17;18.70;43.90
52739;DHT22;52466;40.122;18.318;2022-09-21T17:37:25;18.80;44.00
52739;DHT22;52466;40.122;18.318;2022-09-21T17:40:36;18.60;44.40
52739;DHT22;52466;40.122;18.318;2022-09-21T17:50:26;18.60;45.00
52739;DHT22;52466;40.122;18.318;2022-09-21T17:53:34;18.40;45.30
52739;DHT22;52466;40.122;18.318;2022-09-21T17:56:53;18.40;45.50
52739;DHT22;52466;40.122;18.318;2022-09-21T18:00:13;18.30;45.80
52739;DHT22;52466;40.122;18.318;2022-09-21T18:03:25;18.30;45.70
52739;DHT22;52466;40.122;18.318;2022-09-21T18:06:34;18.20;45.90
52739;DHT22;52466;40.122;18.318;2022-09-21T18:09:42;18.30;45.80
52739;DHT22;52466;40.122;18.318;2022-09-21T18:16:23;18.10;46.20
52739;DHT22;52466;40.122;18.318;2022-09-21T18:26:10;18.00;46.80
52739;DHT22;52466;40.122;18.318;2022-09-21T18:29:29;17.90;46.90
52739;DHT22;52466;40.122;18.318;2022-09-21T18:33:01;17.80;47.30
52739;DHT22;52466;40.122;18.318;2022-09-21T18:50:26;17.70;47.70
52739;DHT22;52466;40.122;18.318;2022-09-21T18:56:52;17.60;48.50
52739;DHT22;52466;40.122;18.318;2022-09-21T19:00:00;17.60;48.80
52739;DHT22;52466;40.122;18.318;2022-09-21T19:03:11;17.50;49.30
52739;DHT22;52466;40.122;18.318;2022-09-21T19:13:23;17.70;49.40
52739;DHT22;52466;40.122;18.318;2022-09-21T19:16:43;17.60;49.60
52739;DHT22;52466;40.122;18.318;2022-09-21T19:20:13;17.70;49.50
52739;DHT22;52466;40.122;18.318;2022-09-21T19:30:08;17.80;49.00
52739;DHT22;52466;40.122;18.318;2022-09-21T19:33:29;17.90;48.50
52739;DHT22;52466;40.122;18.318;2022-09-21T19:36:37;18.00;47.90
52739;DHT22;52466;40.122;18.318;2022-09-21T19:39:45;17.90;47.60
52739;DHT22;52466;40.122;18.318;2022-09-21T19:43:26;18.10;47.30
52739;DHT22;52466;40.122;18.318;2022-09-21T19:46:48;18.10;46.70
52739;DHT22;52466;40.122;18.318;2022-09-21T19:53:32;18.10;46.80
52739;DHT22;52466;40.122;18.318;2022-09-21T19:56:58;18.10;46.70
52739;DHT22;52466;40.122;18.318;2022-09-21T20:00:25;18.10;46.70
52739;DHT22;52466;40.122;18.318;2022-09-21T20:03:44;18.10;46.80
52739;DHT22;52466;40.122;18.318;2022-09-21T20:06:55;18.10;46.80
52739;DHT22;52466;40.122;18.318;2022-09-21T20:10:19;18.10;46.70
52739;DHT22;52466;40.122;18.318;2022-09-21T20:17:02;18.10;46.70
52739;DHT22;52466;40.122;18.318;2022-09-21T20:20:22;18.10;46.80
52739;DHT22;52466;40.122;18.318;2022-09-21T20:23:31;18.00;46.90
52739;DHT22;52466;40.122;18.318;2022-09-21T20:26:42;18.00;46.90
52739;DHT22;52466;40.122;18.318;2022-09-21T20:29:51;17.90;47.10
52739;DHT22;52466;40.122;18.318;2022-09-21T20:33:04;17.80;47.30
52739;DHT22;52466;40.122;18.318;2022-09-21T20:36:15;17.70;47.30
52739;DHT22;52466;40.122;18.318;2022-09-21T20:39:23;17.70;47.30
52739;DHT22;52466;40.122;18.318;2022-09-21T20:42:55;17.60;47.50
52739;DHT22;52466;40.122;18.318;2022-09-21T20:46:04;17.70;47.60
52739;DHT22;52466;40.122;18.318;2022-09-21T20:49:11;17.60;48.20
52739;DHT22;52466;40.122;18.318;2022-09-21T20:52:21;17.60;48.70
52739;DHT22;52466;40.122;18.318;2022-09-21T20:55:29;17.60;49.20
52739;DHT22;52466;40.122;18.318;2022-09-21T20:58:37;17.60;49.40
52739;DHT22;52466;40.122;18.318;2022-09-21T21:01:44;17.50;50.20
52739;DHT22;52466;40.122;18.318;2022-09-21T21:04:52;17.40;50.60
52739;DHT22;52466;40.122;18.318;2022-09-21T21:08:00;17.40;50.90
52739;DHT22;52466;40.122;18.318;2022-09-21T21:11:09;17.30;51.50
52739;DHT22;52466;40.122;18.318;2022-09-21T21:14:17;17.40;51.50
52739;DHT22;52466;40.122;18.318;2022-09-21T21:17:24;17.30;52.20
52739;DHT22;52466;40.122;18.318;2022-09-21T21:20:49;17.40;52.20
52739;DHT22;52466;40.122;18.318;2022-09-21T21:23:58;17.40;52.40
52739;DHT22;52466;40.122;18.318;2022-09-21T21:27:24;17.40;52.80
52739;DHT22;52466;40.122;18.318;2022-09-21T21:30:32;17.30;53.30
52739;DHT22;52466;40.122;18.318;2022-09-21T21:33:40;17.40;53.20
52739;DHT22;52466;40.122;18.318;2022-09-21T21:36:47;17.50;53.10
52739;DHT22;52466;40.122;18.318;2022-09-21T21:39:55;17.50;53.10
52739;DHT22;52466;40.122;18.318;2022-09-21T21:43:03;17.40;53.40
52739;DHT22;52466;40.122;18.318;2022-09-21T21:46:11;17.40;53.30
52739;DHT22;52466;40.122;18.318;2022-09-21T21:49:20;17.30;53.40
52739;DHT22;52466;40.122;18.318;2022-09-21T21:52:28;17.40;53.30
52739;DHT22;52466;40.122;18.318;2022-09-21T21:55:37;17.40;53.20
52739;DHT22;52466;40.122;18.318;2022-09-21T21:58:45;17.40;53.30
52739;DHT22;52466;40.122;18.318;2022-09-21T22:01:53;17.30;53.50
52739;DHT22;52466;40.122;18.318;2022-09-21T22:05:01;17.30;53.70
52739;DHT22;52466;40.122;18.318;2022-09-21T22:08:08;17.10;53.90
52739;DHT22;52466;40.122;18.318;2022-09-21T22:11:17;17.10;54.30
52739;DHT22;52466;40.122;18.318;2022-09-21T22:14:24;17.00;54.30
52739;DHT22;52466;40.122;18.318;2022-09-21T22:17:32;16.90;54.40
52739;DHT22;52466;40.122;18.318;2022-09-21T22:20:40;16.90;54.60
52739;DHT22;52466;40.122;18.318;2022-09-21T22:23:55;16.80;54.60
52739;DHT22;52466;40.122;18.318;2022-09-21T22:27:03;16.80;54.70
52739;DHT22;52466;40.122;18.318;2022-09-21T22:30:11;16.80;54.80
52739;DHT22;52466;40.122;18.318;2022-09-21T22:33:18;16.60;55.00
52739;DHT22;52466;40.122;18.318;2022-09-21T22:36:32;16.50;55.30
52739;DHT22;52466;40.122;18.318;2022-09-21T22:39:40;16.50;55.30
52739;DHT22;52466;40.122;18.318;2022-09-21T22:42:49;16.50;55.30
52739;DHT22;52466;40.122;18.318;2022-09-21T22:45:56;16.40;55.30
52739;DHT22;52466;40.122;18.318;2022-09-21T22:49:04;16.50;55.20
52739;DHT22;52466;40.122;18.318;2022-09-21T22:52:12;16.50;55.20
52739;DHT22;52466;40.122;18.318;2022-09-21T22:55:20;16.40;55.20
52739;DHT22;52466;40.122;18.318;2022-09-21T22:58:28;16.40;55.30
52739;DHT22;52466;40.122;18.318;2022-09-21T23:01:37;16.30;55.40
52739;DHT22;52466;40.122;18.318;2022-09-21T23:04:45;16.30;55.30
52739;DHT22;52466;40.122;18.318;2022-09-21T23:07:53;16.30;55.40
52739;DHT22;52466;40.122;18.318;2022-09-21T23:11:19;16.20;55.50
52739;DHT22;52466;40.122;18.318;2022-09-21T23:14:28;16.00;56.00
52739;DHT22;52466;40.122;18.318;2022-09-21T23:17:35;16.30;55.40
52739;DHT22;52466;40.122;18.318;2022-09-21T23:20:43;16.10;55.50
52739;DHT22;52466;40.122;18.318;2022-09-21T23:24:00;16.10;55.90
52739;DHT22;52466;40.122;18.318;2022-09-21T23:27:08;16.20;55.60
52739;DHT22;52466;40.122;18.318;2022-09-21T23:30:16;16.20;55.40
52739;DHT22;52466;40.122;18.318;2022-09-21T23:33:23;16.30;55.00
52739;DHT22;52466;40.122;18.318;2022-09-21T23:36:31;16.30;55.10
52739;DHT22;52466;40.122;18.318;2022-09-21T23:39:39;16.50;54.40
52739;DHT22;52466;40.122;18.318;2022-09-21T23:42:46;16.40;54.40
52739;DHT22;52466;40.122;18.318;2022-09-21T23:45:54;16.40;54.20
52739;DHT22;52466;40.122;18.318;2022-09-21T23:49:02;16.50;54.00
52739;DHT22;52466;40.122;18.318;2022-09-21T23:52:10;16.60;53.40
52739;DHT22;52466;40.122;18.318;2022-09-21T23:55:17;16.50;53.60
52739;DHT22;52466;40.122;18.318;2022-09-21T23:58:26;16.50;53.80
